Time;durP1;ratioP1;P1;durP2;ratioP2;P2;SDS_P1;SDS_P2;PMS_P1;PMS_P2;Temp;Humidity;BMP_temperature;BMP_pressure;BME280_temperature;BME280_humidity;BME280_pressure;Samples;Min_cycle;Max_cycle;Signal;HPM_P1;HPM_P2
2022/08/12 00:44:22;;;;;;;;;;;21.60;42.80;;;;;;474035;247;1289;-52
2022/08/12 00:46:35;;;;;;;;;;;21.60;42.90;;;;;;479484;247;1244;-52
2022/08/12 00:48:34;;;;;;;;;;;21.60;42.90;;;;;;481647;247;2437;-51
2022/08/12 00:50:35;;;;;;;;;;;21.60;42.90;;;;;;482131;247;1229;-50
2022/08/12 00:52:36;;;;;;;;;;;21.70;43.00;;;;;;482206;247;1278;-52
2022/08/12 00:54:38;;;;;;;;;;;21.60;43.00;;;;;;482074;247;1346;-51
2022/08/12 00:56:39;;;;;;;;;;;21.60;43.00;;;;;;482174;247;1221;-51
2022/08/12 00:58:40;;;;;;;;;;;21.60;43.10;;;;;;482096;247;1242;-52
2022/08/12 01:00:42;;;;;;;;;;;21.60;43.10;;;;;;482146;247;1258;-52
2022/08/12 01:02:43;;;;;;;;;;;21.60;43.10;;;;;;482172;247;1240;-52
2022/08/12 01:11:42;;;;;;;;;;;21.60;43.30;;;;;;482211;247;1364;-52
2022/08/12 01:13:44;;;;;;;;;;;21.60;43.30;;;;;;481943;247;1354;-51
2022/08/12 01:15:45;;;;;;;;;;;21.60;43.40;;;;;;482275;246;1424;-52
2022/08/12 01:17:46;;;;;;;;;;;21.60;43.40;;;;;;482025;247;1216;-52
2022/08/12 01:19:48;;;;;;;;;;;21.60;43.40;;;;;;482019;247;1182;-51
2022/08/12 01:21:49;;;;;;;;;;;21.60;43.50;;;;;;481591;247;1226;-52
2022/08/12 01:23:50;;;;;;;;;;;21.60;43.50;;;;;;482264;247;1564;-51
2022/08/12 01:25:51;;;;;;;;;;;21.60;43.40;;;;;;482075;247;1182;-52
2022/08/12 01:27:53;;;;;;;;;;;21.60;43.60;;;;;;482553;247;2228;-51
2022/08/12 01:29:54;;;;;;;;;;;21.60;43.60;;;;;;482123;247;1626;-52
2022/08/12 01:31:55;;;;;;;;;;;21.60;43.60;;;;;;482118;247;1199;-52
2022/08/12 01:33:58;;;;;;;;;;;21.60;43.60;;;;;;482248;247;1235;-52
2022/08/12 01:35:59;;;;;;;;;;;21.60;43.70;;;;;;482146;247;2686;-51
2022/08/12 01:38:00;;;;;;;;;;;21.60;43.70;;;;;;482222;247;1560;-51
2022/08/12 01:40:02;;;;;;;;;;;21.60;43.70;;;;;;482494;247;1124;-51
2022/08/12 01:42:02;;;;;;;;;;;21.60;43.80;;;;;;482218;247;2117;-51
2022/08/12 01:44:04;;;;;;;;;;;21.60;43.80;;;;;;482124;246;1216;-51
2022/08/12 01:46:05;;;;;;;;;;;21.60;43.80;;;;;;482095;247;1266;-51
2022/08/12 01:48:06;;;;;;;;;;;21.60;43.80;;;;;;482327;246;2205;-51
2022/08/12 01:50:08;;;;;;;;;;;21.60;43.80;;;;;;482118;246;1350;-52
2022/08/12 01:52:09;;;;;;;;;;;21.60;43.90;;;;;;482172;247;1276;-52
2022/08/12 01:54:11;;;;;;;;;;;21.60;43.90;;;;;;482454;246;1244;-51
2022/08/12 01:56:13;;;;;;;;;;;21.60;43.90;;;;;;482447;246;2477;-52
2022/08/12 01:58:13;;;;;;;;;;;21.60;43.90;;;;;;482094;247;1964;-51
2022/08/12 02:00:14;;;;;;;;;;;21.60;43.90;;;;;;473518;247;1277;-51
2022/08/12 02:02:16;;;;;;;;;;;21.60;44.00;;;;;;479682;247;1150;-52
2022/08/12 02:11:18;;;;;;;;;;;21.60;44.10;;;;;;479557;247;1336;-52
2022/08/12 02:13:20;;;;;;;;;;;21.60;44.20;;;;;;482600;246;1084;-51
2022/08/12 02:15:22;;;;;;;;;;;21.60;44.20;;;;;;482232;247;1367;-51
2022/08/12 02:17:22;;;;;;;;;;;21.60;44.20;;;;;;482469;247;2390;-51
2022/08/12 02:19:26;;;;;;;;;;;21.50;44.20;;;;;;482457;247;1391;-51
2022/08/12 02:21:26;;;;;;;;;;;21.60;44.20;;;;;;482105;247;2518;-51
2022/08/12 02:23:27;;;;;;;;;;;21.60;44.30;;;;;;482116;247;1264;-51
2022/08/12 02:25:28;;;;;;;;;;;21.60;44.30;;;;;;482103;247;1262;-52
2022/08/12 02:27:30;;;;;;;;;;;21.60;44.30;;;;;;482278;247;1257;-52
2022/08/12 02:29:31;;;;;;;;;;;21.60;44.30;;;;;;482055;247;2334;-52
2022/08/12 02:31:32;;;;;;;;;;;21.60;44.30;;;;;;482041;247;1306;-52
2022/08/12 02:33:34;;;;;;;;;;;21.60;44.30;;;;;;482232;247;1583;-51
2022/08/12 02:35:35;;;;;;;;;;;21.60;44.40;;;;;;482280;247;1234;-51
2022/08/12 02:37:36;;;;;;;;;;;21.50;44.40;;;;;;481955;247;1177;-51
2022/08/12 02:39:38;;;;;;;;;;;21.60;44.40;;;;;;482413;247;1203;-51
2022/08/12 02:41:39;;;;;;;;;;;21.60;44.40;;;;;;482301;247;1283;-51
2022/08/12 02:43:40;;;;;;;;;;;21.60;44.40;;;;;;482112;247;1225;-51
2022/08/12 02:45:44;;;;;;;;;;;21.60;44.50;;;;;;482029;247;1204;-51
2022/08/12 02:47:43;;;;;;;;;;;21.60;44.50;;;;;;481960;246;1424;-52
2022/08/12 02:49:44;;;;;;;;;;;21.60;44.50;;;;;;482031;247;2153;-51
2022/08/12 02:51:46;;;;;;;;;;;21.60;44.50;;;;;;482155;247;1246;-51
2022/08/12 02:53:47;;;;;;;;;;;21.60;44.50;;;;;;482566;247;1247;-51
2022/08/12 02:55:48;;;;;;;;;;;21.60;44.50;;;;;;482398;247;1237;-52
2022/08/12 02:57:50;;;;;;;;;;;21.60;44.60;;;;;;482199;247;1228;-52
2022/08/12 02:59:51;;;;;;;;;;;21.60;44.60;;;;;;482374;246;1295;-52
2022/08/12 03:01:53;;;;;;;;;;;21.60;44.60;;;;;;482231;247;1155;-51
2022/08/12 03:03:54;;;;;;;;;;;21.60;44.60;;;;;;482186;246;1196;-51
2022/08/12 03:05:55;;;;;;;;;;;21.60;44.60;;;;;;482070;247;1177;-51
2022/08/12 03:07:58;;;;;;;;;;;21.60;44.60;;;;;;482137;246;1226;-51
2022/08/12 03:09:58;;;;;;;;;;;21.60;44.70;;;;;;482132;247;2192;-50
2022/08/12 03:11:59;;;;;;;;;;;21.60;44.70;;;;;;482157;247;1691;-52
2022/08/12 03:14:00;;;;;;;;;;;21.60;44.70;;;;;;482426;247;1233;-52
2022/08/12 03:16:02;;;;;;;;;;;21.60;44.70;;;;;;482049;246;1288;-51
2022/08/12 03:18:03;;;;;;;;;;;21.60;44.70;;;;;;482496;247;1206;-51
2022/08/12 03:20:05;;;;;;;;;;;21.60;44.80;;;;;;481778;247;1199;-51
2022/08/12 03:22:11;;;;;;;;;;;21.60;44.80;;;;;;481618;247;1584;-52
2022/08/12 03:24:08;;;;;;;;;;;21.50;44.80;;;;;;482146;247;2502;-51
2022/08/12 03:26:09;;;;;;;;;;;21.60;44.80;;;;;;482304;247;1200;-51
2022/08/12 03:28:11;;;;;;;;;;;21.60;44.80;;;;;;482178;247;2204;-51
2022/08/12 03:30:12;;;;;;;;;;;21.60;44.90;;;;;;482409;247;1203;-51
2022/08/12 03:32:13;;;;;;;;;;;21.50;44.80;;;;;;482113;247;1350;-51
2022/08/12 03:34:22;;;;;;;;;;;21.60;44.90;;;;;;482094;247;1262;-51
2022/08/12 03:36:16;;;;;;;;;;;21.60;45.00;;;;;;482082;247;2136;-51
2022/08/12 03:38:17;;;;;;;;;;;21.50;44.90;;;;;;482109;247;1254;-52
2022/08/12 03:42:39;;;;;;;;;;;21.50;45.00;;;;;;482108;247;1268;-52
2022/08/12 04:00:54;;;;;;;;;;;21.60;45.10;;;;;;476395;247;1181;-51
2022/08/12 04:02:57;;;;;;;;;;;21.60;45.10;;;;;;482678;247;1218;-51
2022/08/12 04:04:58;;;;;;;;;;;21.60;45.10;;;;;;465424;255;1428;-51
2022/08/12 04:06:59;;;;;;;;;;;21.60;45.10;;;;;;465298;256;1240;-51
2022/08/12 04:09:00;;;;;;;;;;;21.60;45.20;;;;;;461031;256;2212;-52
2022/08/12 04:13:24;;;;;;;;;;;21.60;45.20;;;;;;463962;256;1226;-51
2022/08/12 04:15:24;;;;;;;;;;;21.60;45.20;;;;;;468812;252;2412;-51
2022/08/12 04:17:25;;;;;;;;;;;21.60;45.20;;;;;;472384;252;1910;-52
2022/08/12 04:19:25;;;;;;;;;;;21.60;45.20;;;;;;472573;252;2433;-52
2022/08/12 04:21:27;;;;;;;;;;;21.60;45.20;;;;;;464802;255;1381;-52
2022/08/12 04:23:28;;;;;;;;;;;21.60;45.20;;;;;;462336;256;1332;-51
2022/08/12 04:25:29;;;;;;;;;;;21.60;45.30;;;;;;472413;252;1326;-52
2022/08/12 04:27:31;;;;;;;;;;;21.60;45.30;;;;;;472573;252;1307;-51
2022/08/12 04:29:33;;;;;;;;;;;21.60;45.30;;;;;;481940;247;2204;-52
2022/08/12 04:31:34;;;;;;;;;;;21.60;45.30;;;;;;482025;247;1202;-51
2022/08/12 04:33:35;;;;;;;;;;;21.60;45.30;;;;;;482004;247;1220;-51
2022/08/12 04:35:37;;;;;;;;;;;21.60;45.30;;;;;;482181;247;1266;-52
2022/08/12 04:37:38;;;;;;;;;;;21.60;45.40;;;;;;482161;246;1329;-52
2022/08/12 04:39:39;;;;;;;;;;;21.60;45.40;;;;;;481945;247;1286;-51
2022/08/12 04:41:41;;;;;;;;;;;21.50;45.30;;;;;;481938;247;1198;-51
2022/08/12 04:43:43;;;;;;;;;;;21.50;45.30;;;;;;482238;246;1285;-52
2022/08/12 04:45:45;;;;;;;;;;;21.60;45.30;;;;;;482005;246;1201;-52
2022/08/12 04:47:45;;;;;;;;;;;21.60;45.40;;;;;;481895;247;1641;-51
2022/08/12 04:49:48;;;;;;;;;;;21.60;45.40;;;;;;481988;247;2169;-52
2022/08/12 04:51:48;;;;;;;;;;;21.50;45.40;;;;;;481833;247;1274;-52
2022/08/12 04:53:50;;;;;;;;;;;21.60;45.40;;;;;;482221;247;1270;-51
2022/08/12 04:55:51;;;;;;;;;;;21.60;45.50;;;;;;481881;247;1253;-51
2022/08/12 04:57:53;;;;;;;;;;;21.60;45.50;;;;;;481840;247;1219;-51
2022/08/12 04:59:54;;;;;;;;;;;21.60;45.40;;;;;;481902;247;2118;-52
2022/08/12 05:01:56;;;;;;;;;;;21.60;45.50;;;;;;481711;247;1457;-52
2022/08/12 05:03:56;;;;;;;;;;;21.50;45.50;;;;;;482063;247;2362;-51
2022/08/12 05:05:58;;;;;;;;;;;21.60;45.50;;;;;;481810;247;1308;-51
2022/08/12 05:07:59;;;;;;;;;;;21.60;45.50;;;;;;482229;247;1300;-52
2022/08/12 05:10:00;;;;;;;;;;;21.60;45.50;;;;;;481999;247;2185;-51
2022/08/12 05:12:02;;;;;;;;;;;21.60;45.50;;;;;;482155;247;1309;-52
2022/08/12 05:14:03;;;;;;;;;;;21.60;45.50;;;;;;481873;247;1254;-51
2022/08/12 05:16:05;;;;;;;;;;;21.60;45.50;;;;;;481753;247;1282;-51
2022/08/12 05:18:07;;;;;;;;;;;21.60;45.50;;;;;;481869;246;1204;-51
2022/08/12 05:20:10;;;;;;;;;;;21.60;45.50;;;;;;481854;247;1210;-51
2022/08/12 05:22:10;;;;;;;;;;;21.60;45.60;;;;;;481743;247;2333;-52
2022/08/12 05:24:11;;;;;;;;;;;21.50;45.50;;;;;;482097;246;1207;-52
2022/08/12 05:26:13;;;;;;;;;;;21.60;45.60;;;;;;481720;247;1567;-52
2022/08/12 05:28:14;;;;;;;;;;;21.60;45.50;;;;;;481828;247;1318;-51
2022/08/12 05:30:15;;;;;;;;;;;21.60;45.50;;;;;;482059;247;2208;-51
2022/08/12 05:32:19;;;;;;;;;;;21.60;45.60;;;;;;481853;246;1537;-52
2022/08/12 05:34:18;;;;;;;;;;;21.60;45.50;;;;;;481599;246;2405;-51
2022/08/12 05:36:19;;;;;;;;;;;21.60;45.50;;;;;;481746;247;1477;-52
2022/08/12 05:40:40;;;;;;;;;;;21.60;45.50;;;;;;481490;247;1412;-51
2022/08/12 05:42:42;;;;;;;;;;;21.60;45.60;;;;;;481998;247;1315;-51
2022/08/12 05:44:43;;;;;;;;;;;21.60;45.60;;;;;;481938;246;1365;-51
2022/08/12 05:46:45;;;;;;;;;;;21.60;45.70;;;;;;481963;247;1141;-51
2022/08/12 05:48:46;;;;;;;;;;;21.60;45.60;;;;;;481879;247;1172;-52
2022/08/12 05:50:47;;;;;;;;;;;21.60;45.60;;;;;;481846;247;2133;-51
2022/08/12 05:52:48;;;;;;;;;;;21.60;45.60;;;;;;481829;246;1162;-51
2022/08/12 05:54:50;;;;;;;;;;;21.60;45.70;;;;;;481886;246;1217;-51
2022/08/12 05:56:51;;;;;;;;;;;21.60;45.70;;;;;;481899;246;1313;-52
2022/08/12 05:58:53;;;;;;;;;;;21.60;45.70;;;;;;481773;247;1394;-51
2022/08/12 06:00:55;;;;;;;;;;;21.60;45.60;;;;;;481781;246;1213;-51
2022/08/12 06:02:59;;;;;;;;;;;21.60;45.70;;;;;;481752;247;2035;-51
2022/08/12 06:04:59;;;;;;;;;;;21.60;45.70;;;;;;481869;246;1378;-52
2022/08/12 06:07:00;;;;;;;;;;;21.60;45.60;;;;;;481588;247;1338;-51
2022/08/12 06:09:00;;;;;;;;;;;21.60;45.70;;;;;;481780;247;1929;-51
2022/08/12 06:11:03;;;;;;;;;;;21.60;45.70;;;;;;481834;246;2177;-52
2022/08/12 06:13:03;;;;;;;;;;;21.60;45.70;;;;;;481659;247;1689;-51
2022/08/12 06:15:04;;;;;;;;;;;21.60;45.70;;;;;;481804;247;1171;-51
2022/08/12 06:17:07;;;;;;;;;;;21.60;45.80;;;;;;481752;247;1611;-51
2022/08/12 06:19:09;;;;;;;;;;;21.60;45.80;;;;;;481637;247;1243;-51
2022/08/12 06:21:09;;;;;;;;;;;21.60;45.80;;;;;;481663;247;2096;-51
2022/08/12 06:23:10;;;;;;;;;;;21.60;45.80;;;;;;481712;247;1205;-51
2022/08/12 06:25:17;;;;;;;;;;;21.60;45.50;;;;;;481846;247;1242;-51
2022/08/12 06:27:17;;;;;;;;;;;21.60;45.50;;;;;;481715;246;1658;-52
2022/08/12 06:29:18;;;;;;;;;;;21.60;45.40;;;;;;481698;247;2521;-51
2022/08/12 06:31:17;;;;;;;;;;;21.60;45.30;;;;;;481526;246;1758;-51
2022/08/12 06:33:18;;;;;;;;;;;21.60;45.20;;;;;;481739;247;1543;-51
2022/08/12 06:35:20;;;;;;;;;;;21.60;45.20;;;;;;481761;247;1202;-51
2022/08/12 06:37:22;;;;;;;;;;;21.60;45.10;;;;;;481780;247;1233;-52
2022/08/12 06:39:23;;;;;;;;;;;21.60;45.00;;;;;;481633;247;1464;-50
2022/08/12 06:43:44;;;;;;;;;;;21.60;45.00;;;;;;481377;247;1155;-52
2022/08/12 06:45:46;;;;;;;;;;;21.60;44.90;;;;;;481345;247;1400;-51
2022/08/12 06:47:46;;;;;;;;;;;21.60;44.90;;;;;;481547;247;1271;-51
2022/08/12 06:49:48;;;;;;;;;;;21.60;44.80;;;;;;481615;247;2192;-52
2022/08/12 06:51:49;;;;;;;;;;;21.60;44.80;;;;;;481339;247;1317;-51
2022/08/12 06:53:50;;;;;;;;;;;21.60;44.80;;;;;;481579;247;1334;-52
2022/08/12 06:55:53;;;;;;;;;;;21.70;44.70;;;;;;481727;247;1564;-51
2022/08/12 06:57:53;;;;;;;;;;;21.60;44.60;;;;;;480927;247;2296;-52
2022/08/12 06:59:55;;;;;;;;;;;21.70;44.60;;;;;;481694;247;1209;-51
2022/08/12 07:01:56;;;;;;;;;;;21.60;44.60;;;;;;481614;247;1240;-52
2022/08/12 07:03:57;;;;;;;;;;;21.60;44.60;;;;;;481574;247;1255;-51
2022/08/12 07:05:59;;;;;;;;;;;21.60;44.50;;;;;;481499;247;1465;-51
2022/08/12 07:08:00;;;;;;;;;;;21.60;44.40;;;;;;481838;247;1369;-51
2022/08/12 07:10:02;;;;;;;;;;;21.60;44.40;;;;;;481659;247;2232;-52
2022/08/12 07:12:03;;;;;;;;;;;21.70;44.40;;;;;;481661;247;1209;-51
2022/08/12 07:14:05;;;;;;;;;;;21.60;44.40;;;;;;481488;247;1274;-51
2022/08/12 07:16:06;;;;;;;;;;;21.70;44.40;;;;;;481437;247;1199;-52
2022/08/12 07:18:10;;;;;;;;;;;21.70;44.40;;;;;;481630;247;1536;-51
2022/08/12 07:20:11;;;;;;;;;;;21.60;44.30;;;;;;481611;247;1910;-51
2022/08/12 07:22:12;;;;;;;;;;;21.60;44.30;;;;;;481595;247;1181;-52
2022/08/12 07:24:13;;;;;;;;;;;21.60;44.30;;;;;;481558;247;1557;-52
2022/08/12 07:26:18;;;;;;;;;;;21.70;44.30;;;;;;481599;247;1275;-51
2022/08/12 07:28:17;;;;;;;;;;;21.60;44.20;;;;;;481581;247;2310;-51
2022/08/12 07:30:18;;;;;;;;;;;21.60;44.20;;;;;;481602;247;2206;-51
2022/08/12 07:32:23;;;;;;;;;;;21.60;44.10;;;;;;481502;247;1694;-51
2022/08/12 07:34:22;;;;;;;;;;;21.70;44.20;;;;;;481349;247;2750;-52
2022/08/12 07:36:24;;;;;;;;;;;21.70;44.10;;;;;;481395;246;1215;-51
2022/08/12 07:38:26;;;;;;;;;;;21.70;44.10;;;;;;481585;247;2551;-52
2022/08/12 07:40:26;;;;;;;;;;;21.70;44.10;;;;;;481684;247;2380;-51
2022/08/12 07:42:27;;;;;;;;;;;21.60;44.00;;;;;;481551;247;1195;-51
2022/08/12 07:44:30;;;;;;;;;;;21.70;44.00;;;;;;481759;247;1101;-51
2022/08/12 07:46:30;;;;;;;;;;;21.70;44.00;;;;;;481560;247;1925;-51
2022/08/12 07:48:31;;;;;;;;;;;21.70;44.00;;;;;;481730;247;1213;-52
2022/08/12 07:50:32;;;;;;;;;;;21.70;43.90;;;;;;481638;247;2169;-52
2022/08/12 07:52:34;;;;;;;;;;;21.70;43.90;;;;;;481422;247;1234;-51
2022/08/12 07:54:36;;;;;;;;;;;21.70;43.90;;;;;;481581;247;1526;-52
2022/08/12 07:56:37;;;;;;;;;;;21.70;43.90;;;;;;481347;247;1522;-51
2022/08/12 07:58:38;;;;;;;;;;;21.70;43.90;;;;;;481398;247;1219;-51
2022/08/12 08:00:40;;;;;;;;;;;21.70;43.90;;;;;;481305;247;1265;-51
2022/08/12 08:02:41;;;;;;;;;;;21.70;43.90;;;;;;481477;247;1293;-51
2022/08/12 08:04:59;;;;;;;;;;;21.70;43.80;;;;;;481600;247;1157;-52
2022/08/12 08:07:00;;;;;;;;;;;21.70;43.80;;;;;;481396;247;2101;-52
2022/08/12 08:09:01;;;;;;;;;;;21.70;43.80;;;;;;481580;247;2115;-52
2022/08/12 08:13:21;;;;;;;;;;;21.70;43.90;;;;;;481500;247;1253;-51
2022/08/12 08:15:22;;;;;;;;;;;21.70;44.00;;;;;;481432;247;1122;-51
2022/08/12 08:17:24;;;;;;;;;;;21.70;44.00;;;;;;481395;247;1231;-51
2022/08/12 08:19:27;;;;;;;;;;;21.70;44.00;;;;;;481496;247;1365;-51
2022/08/12 08:21:32;;;;;;;;;;;21.70;44.00;;;;;;481456;247;2172;-51
2022/08/12 08:24:13;;;;;;;;;;;21.70;43.90;;;;;;481431;247;1354;-52
2022/08/12 08:25:30;;;;;;;;;;;21.70;43.90;;;;;;481558;247;1397;-51
2022/08/12 08:27:31;;;;;;;;;;;21.70;43.90;;;;;;476684;247;1252;-51
2022/08/12 08:29:34;;;;;;;;;;;21.70;43.90;;;;;;481618;247;1226;-51
2022/08/12 08:31:34;;;;;;;;;;;21.70;43.90;;;;;;481723;247;2223;-51
2022/08/12 08:33:36;;;;;;;;;;;21.70;43.90;;;;;;481457;247;1467;-50
2022/08/12 08:35:37;;;;;;;;;;;21.70;43.80;;;;;;481348;247;1634;-51
2022/08/12 08:37:38;;;;;;;;;;;21.70;43.80;;;;;;481787;247;1297;-52
2022/08/12 08:39:40;;;;;;;;;;;21.70;43.80;;;;;;481412;247;1288;-52
2022/08/12 08:44:01;;;;;;;;;;;21.70;43.80;;;;;;481512;247;1307;-51
2022/08/12 08:46:04;;;;;;;;;;;21.70;43.70;;;;;;481425;246;2065;-51
2022/08/12 08:48:03;;;;;;;;;;;21.70;43.70;;;;;;481500;247;2426;-52
2022/08/12 08:50:04;;;;;;;;;;;21.70;43.70;;;;;;481427;246;2185;-51
2022/08/12 08:52:06;;;;;;;;;;;21.70;43.70;;;;;;481602;247;1187;-51
2022/08/12 08:54:10;;;;;;;;;;;21.70;43.70;;;;;;481440;247;1325;-51
2022/08/12 08:56:10;;;;;;;;;;;21.70;43.70;;;;;;481520;246;1667;-51
2022/08/12 08:58:11;;;;;;;;;;;21.70;43.60;;;;;;481619;247;1443;-52
2022/08/12 09:00:12;;;;;;;;;;;21.70;43.60;;;;;;481549;247;1262;-52
2022/08/12 09:02:14;;;;;;;;;;;21.70;43.60;;;;;;481469;247;1235;-52
2022/08/12 09:04:15;;;;;;;;;;;21.70;43.60;;;;;;481390;247;1194;-51
2022/08/12 09:06:16;;;;;;;;;;;21.70;43.60;;;;;;481434;247;1299;-52
2022/08/12 09:08:18;;;;;;;;;;;21.70;43.50;;;;;;481434;247;1389;-51
2022/08/12 09:10:19;;;;;;;;;;;21.70;43.50;;;;;;481412;247;2325;-51
2022/08/12 09:14:42;;;;;;;;;;;21.70;43.50;;;;;;480827;247;1625;-52
2022/08/12 09:16:42;;;;;;;;;;;21.70;43.50;;;;;;481464;247;2467;-51
2022/08/12 09:18:43;;;;;;;;;;;21.70;43.50;;;;;;481381;247;1275;-52
2022/08/12 09:20:44;;;;;;;;;;;21.70;43.50;;;;;;481481;247;1198;-51
2022/08/12 09:22:46;;;;;;;;;;;21.70;43.50;;;;;;481529;247;1358;-51
2022/08/12 09:24:47;;;;;;;;;;;21.70;43.50;;;;;;481399;247;1275;-51
2022/08/12 09:26:48;;;;;;;;;;;21.70;43.50;;;;;;481996;247;1067;-52
2022/08/12 09:28:50;;;;;;;;;;;21.70;43.50;;;;;;481470;247;1552;-51
2022/08/12 09:30:52;;;;;;;;;;;21.70;43.50;;;;;;481410;247;2185;-51
2022/08/12 09:32:53;;;;;;;;;;;21.70;43.50;;;;;;481752;247;2066;-51
2022/08/12 09:34:54;;;;;;;;;;;21.70;43.40;;;;;;481441;246;1491;-52
2022/08/12 09:36:56;;;;;;;;;;;21.70;43.40;;;;;;481505;247;1116;-51
2022/08/12 09:39:01;;;;;;;;;;;21.70;43.40;;;;;;481467;246;1186;-52
2022/08/12 09:40:58;;;;;;;;;;;21.70;43.40;;;;;;481435;247;2258;-52
2022/08/12 09:45:22;;;;;;;;;;;21.70;43.40;;;;;;481245;247;1226;-51
2022/08/12 09:47:27;;;;;;;;;;;21.70;43.40;;;;;;481106;247;1212;-51
2022/08/12 09:49:25;;;;;;;;;;;21.70;43.40;;;;;;481611;247;1760;-51
2022/08/12 09:51:26;;;;;;;;;;;21.70;43.40;;;;;;481734;247;2205;-51
2022/08/12 09:53:28;;;;;;;;;;;21.70;43.50;;;;;;481103;247;1221;-52
2022/08/12 09:55:31;;;;;;;;;;;21.70;43.60;;;;;;481193;247;1231;-51
2022/08/12 09:57:30;;;;;;;;;;;21.70;43.60;;;;;;481571;247;2003;-52
2022/08/12 09:59:35;;;;;;;;;;;21.70;43.50;;;;;;481622;247;1284;-51
2022/08/12 10:01:36;;;;;;;;;;;21.70;43.50;;;;;;481524;247;1494;-51
2022/08/12 10:03:35;;;;;;;;;;;21.70;43.50;;;;;;481224;247;1261;-51
2022/08/12 10:05:36;;;;;;;;;;;21.70;43.50;;;;;;481308;247;2047;-50
2022/08/12 10:07:37;;;;;;;;;;;21.70;43.40;;;;;;481435;247;1263;-51
2022/08/12 10:09:38;;;;;;;;;;;21.70;43.40;;;;;;481635;247;1245;-51
2022/08/12 10:13:59;;;;;;;;;;;21.70;43.40;;;;;;481653;247;1232;-51
2022/08/12 10:16:00;;;;;;;;;;;21.70;43.30;;;;;;481711;247;1117;-51
2022/08/12 10:18:02;;;;;;;;;;;21.70;43.30;;;;;;481520;247;1264;-52
2022/08/12 10:20:03;;;;;;;;;;;21.70;43.30;;;;;;481727;247;1154;-51
2022/08/12 10:22:05;;;;;;;;;;;21.70;43.30;;;;;;481662;247;1212;-51
2022/08/12 10:24:07;;;;;;;;;;;21.70;43.30;;;;;;481666;247;1114;-51
2022/08/12 10:30:46;;;;;;;;;;;21.70;43.20;;;;;;481632;247;2177;-51
2022/08/12 10:32:52;;;;;;;;;;;21.70;43.20;;;;;;481842;247;1249;-51
2022/08/12 10:34:49;;;;;;;;;;;21.70;43.20;;;;;;481564;247;2686;-50
2022/08/12 10:36:53;;;;;;;;;;;21.70;43.20;;;;;;481585;247;1227;-51
2022/08/12 10:38:53;;;;;;;;;;;21.70;43.20;;;;;;481502;247;1444;-52
2022/08/12 10:45:32;;;;;;;;;;;21.70;43.10;;;;;;481723;247;1248;-51
2022/08/12 10:47:33;;;;;;;;;;;21.70;43.10;;;;;;481635;247;1237;-51
2022/08/12 10:49:35;;;;;;;;;;;21.70;43.10;;;;;;481459;247;1191;-51
2022/08/12 10:51:36;;;;;;;;;;;21.70;43.10;;;;;;481376;247;2285;-52
2022/08/12 10:53:38;;;;;;;;;;;21.70;43.10;;;;;;481486;247;1274;-51
2022/08/12 10:55:38;;;;;;;;;;;21.70;43.10;;;;;;481479;247;2230;-52
2022/08/12 10:57:40;;;;;;;;;;;21.70;43.10;;;;;;481564;247;1483;-51
2022/08/12 10:59:41;;;;;;;;;;;21.70;43.00;;;;;;481542;246;1264;-51
2022/08/12 11:01:43;;;;;;;;;;;21.70;43.00;;;;;;481653;247;1296;-52
2022/08/12 11:03:44;;;;;;;;;;;21.70;43.00;;;;;;481810;247;1323;-52
2022/08/12 11:05:46;;;;;;;;;;;21.70;43.00;;;;;;481821;247;1170;-51
2022/08/12 11:07:49;;;;;;;;;;;21.70;43.00;;;;;;481544;247;1926;-51
2022/08/12 11:09:49;;;;;;;;;;;21.70;43.00;;;;;;481419;247;1431;-51
2022/08/12 11:11:50;;;;;;;;;;;21.70;43.00;;;;;;481469;247;2196;-52
2022/08/12 11:13:51;;;;;;;;;;;21.70;42.90;;;;;;481739;247;1267;-51
2022/08/12 11:15:54;;;;;;;;;;;21.70;42.90;;;;;;481477;247;1468;-52
2022/08/12 11:17:54;;;;;;;;;;;21.70;42.90;;;;;;481583;247;2174;-51
2022/08/12 11:19:55;;;;;;;;;;;21.70;42.90;;;;;;481565;247;1490;-51
2022/08/12 11:21:57;;;;;;;;;;;21.70;42.90;;;;;;481627;247;1233;-51
2022/08/12 11:23:58;;;;;;;;;;;21.70;42.90;;;;;;481609;246;1264;-51
2022/08/12 11:25:59;;;;;;;;;;;21.70;42.90;;;;;;481575;247;1164;-51
2022/08/12 11:28:01;;;;;;;;;;;21.70;42.90;;;;;;481716;246;1284;-51
2022/08/12 11:30:02;;;;;;;;;;;21.70;42.80;;;;;;481731;247;1323;-52
2022/08/12 11:32:03;;;;;;;;;;;21.70;42.80;;;;;;481684;246;2160;-51
2022/08/12 11:34:05;;;;;;;;;;;21.70;42.90;;;;;;481691;246;1214;-52
2022/08/12 11:36:06;;;;;;;;;;;21.70;43.00;;;;;;481578;247;1247;-52
2022/08/12 11:38:08;;;;;;;;;;;21.70;43.10;;;;;;481593;246;1376;-51
2022/08/12 11:40:09;;;;;;;;;;;21.70;43.10;;;;;;481679;246;1232;-51
2022/08/12 11:42:10;;;;;;;;;;;21.70;43.00;;;;;;481651;247;1179;-51
2022/08/12 11:44:12;;;;;;;;;;;21.70;43.00;;;;;;481626;247;1132;-51
2022/08/12 11:46:13;;;;;;;;;;;21.70;43.00;;;;;;481610;247;1297;-51
2022/08/12 11:48:15;;;;;;;;;;;21.70;42.90;;;;;;481706;247;1293;-51
2022/08/12 11:50:16;;;;;;;;;;;21.70;42.90;;;;;;481555;247;1815;-51
2022/08/12 11:52:17;;;;;;;;;;;21.70;42.90;;;;;;481632;246;2200;-51
2022/08/12 11:54:18;;;;;;;;;;;21.70;42.80;;;;;;481326;247;1227;-51
2022/08/12 11:56:20;;;;;;;;;;;21.70;42.80;;;;;;481620;247;1185;-51
2022/08/12 11:58:21;;;;;;;;;;;21.70;42.80;;;;;;481739;247;1516;-52
2022/08/12 12:00:22;;;;;;;;;;;21.70;42.80;;;;;;481677;247;1300;-51
2022/08/12 12:02:24;;;;;;;;;;;21.70;42.80;;;;;;481665;246;1256;-51
2022/08/12 12:04:25;;;;;;;;;;;21.70;42.80;;;;;;481627;246;1158;-51
2022/08/12 12:06:27;;;;;;;;;;;21.70;42.80;;;;;;481609;247;1171;-52
2022/08/12 12:08:30;;;;;;;;;;;21.70;42.70;;;;;;481683;247;1204;-52
2022/08/12 12:10:30;;;;;;;;;;;21.70;42.70;;;;;;481361;247;1565;-51
2022/08/12 12:12:32;;;;;;;;;;;21.70;42.70;;;;;;481474;247;2184;-52
2022/08/12 12:14:33;;;;;;;;;;;21.70;42.70;;;;;;482075;246;1274;-51
2022/08/12 12:16:34;;;;;;;;;;;21.70;42.60;;;;;;481526;247;1170;-52
2022/08/12 12:18:36;;;;;;;;;;;21.70;42.60;;;;;;481694;247;1210;-51
2022/08/12 12:20:37;;;;;;;;;;;21.70;42.60;;;;;;481608;247;1234;-51
2022/08/12 12:22:38;;;;;;;;;;;21.70;42.60;;;;;;481842;246;1227;-51
2022/08/12 12:24:45;;;;;;;;;;;21.70;42.60;;;;;;481734;247;1157;-51
2022/08/12 12:26:41;;;;;;;;;;;21.70;42.60;;;;;;481604;247;1725;-51
2022/08/12 12:28:43;;;;;;;;;;;21.70;42.60;;;;;;481613;247;1414;-51
2022/08/12 12:30:45;;;;;;;;;;;21.70;42.60;;;;;;481373;247;1217;-52
2022/08/12 12:32:46;;;;;;;;;;;21.70;42.50;;;;;;481597;246;2153;-51
2022/08/12 12:34:47;;;;;;;;;;;21.70;42.50;;;;;;481764;247;1135;-52
2022/08/12 12:36:48;;;;;;;;;;;21.70;42.40;;;;;;481577;247;1181;-52
2022/08/12 12:38:50;;;;;;;;;;;21.70;42.40;;;;;;481732;247;1089;-51
2022/08/12 12:40:51;;;;;;;;;;;21.70;42.40;;;;;;481657;246;1155;-51
2022/08/12 12:42:52;;;;;;;;;;;21.70;42.40;;;;;;481791;247;1153;-52
2022/08/12 12:44:54;;;;;;;;;;;21.70;42.40;;;;;;481704;247;1204;-51
2022/08/12 12:46:55;;;;;;;;;;;21.70;42.40;;;;;;481616;247;1206;-52
2022/08/12 12:48:56;;;;;;;;;;;21.70;42.30;;;;;;481718;246;1294;-51
2022/08/12 12:53:20;;;;;;;;;;;21.70;42.30;;;;;;481375;246;2197;-51
2022/08/12 12:55:20;;;;;;;;;;;21.70;42.30;;;;;;481704;247;2053;-50
2022/08/12 12:57:23;;;;;;;;;;;21.70;42.30;;;;;;481819;247;1185;-52
2022/08/12 12:59:23;;;;;;;;;;;21.70;42.40;;;;;;481683;246;2636;-52
2022/08/12 13:01:24;;;;;;;;;;;21.70;42.30;;;;;;481599;247;1267;-51
2022/08/12 13:03:25;;;;;;;;;;;21.70;42.30;;;;;;481696;247;1541;-51
2022/08/12 13:05:27;;;;;;;;;;;21.80;42.30;;;;;;481673;247;1208;-51
2022/08/12 13:07:28;;;;;;;;;;;21.70;42.30;;;;;;481514;247;2055;-51
2022/08/12 13:09:30;;;;;;;;;;;21.70;42.20;;;;;;481747;246;1193;-51
2022/08/12 13:11:31;;;;;;;;;;;21.80;42.30;;;;;;481758;247;2193;-51
2022/08/12 13:13:35;;;;;;;;;;;21.70;42.30;;;;;;481673;247;1194;-51
2022/08/12 13:15:34;;;;;;;;;;;21.70;42.40;;;;;;481689;247;1808;-51
2022/08/12 13:17:35;;;;;;;;;;;21.70;42.40;;;;;;481771;246;1231;-52
2022/08/12 13:19:37;;;;;;;;;;;21.70;42.50;;;;;;481559;246;1692;-52
2022/08/12 13:22:15;;;;;;;;;;;21.70;42.40;;;;;;481586;247;1221;-51
2022/08/12 13:23:44;;;;;;;;;;;21.70;42.50;;;;;;481779;247;1790;-51
2022/08/12 13:25:41;;;;;;;;;;;21.70;42.40;;;;;;481950;247;2247;-51
2022/08/12 13:27:44;;;;;;;;;;;21.70;42.40;;;;;;481789;246;1296;-51
2022/08/12 13:29:44;;;;;;;;;;;21.70;42.30;;;;;;481616;247;1937;-52
2022/08/12 13:31:45;;;;;;;;;;;21.70;42.30;;;;;;481694;247;2192;-52
2022/08/12 13:33:50;;;;;;;;;;;21.70;42.30;;;;;;481822;247;2214;-51
2022/08/12 13:35:49;;;;;;;;;;;21.70;42.30;;;;;;481689;247;2214;-52
2022/08/12 13:37:52;;;;;;;;;;;21.70;42.30;;;;;;481605;247;1227;-51
2022/08/12 13:39:52;;;;;;;;;;;21.70;42.30;;;;;;481803;247;2053;-51
2022/08/12 13:41:54;;;;;;;;;;;21.70;42.30;;;;;;481750;247;1087;-51
2022/08/12 13:43:55;;;;;;;;;;;21.70;42.30;;;;;;481834;247;1199;-51